Bienfait, Canada
Current Conditions -  °F | °C
As of 6:00 PM on Saturday 22 Nov 2014 (Local Time) from CYEN Reporting Station
Few Clouds Few Clouds  
Wind Chill: 31°   Ceiling: Unl
Heat Index: 36°   Visibility: 15mi
Dew Point: 30°   Wind: 6mph
Humidity: 81%   Direction: 180°S
Pressure: 29.19"   Gusts: NA
Location:  49.15°N, 102.8°W
Report Text: CYEN 230000Z 18005KT 15SM FEW050 FEW120 02/M01 A2919 RMK SC1AC1SLP911
Loading
Personal Weather Stations






























Interactive Weather Map New forecast layout! Learn more

10-Day Weather Forecast

Advertisements
Track Severe Weather on mobile